createdAt,value
2023-05-19T00:00:01.098Z,47.76
2023-05-19T00:00:15.081Z,47.76
2023-05-19T00:00:29.301Z,47.76
2023-05-19T00:00:44.581Z,47.76
2023-05-19T00:01:11.625Z,47.76
2023-05-19T00:01:25.643Z,47.76
2023-05-19T00:01:39.660Z,47.76
2023-05-19T00:01:53.701Z,47.76
2023-05-19T00:02:07.752Z,47.76
2023-05-19T00:02:21.804Z,47.76
2023-05-19T00:02:35.905Z,47.76
2023-05-19T00:02:50.007Z,47.76
2023-05-19T00:03:04.124Z,47.76
2023-05-19T00:03:32.176Z,47.76
2023-05-19T00:03:46.231Z,47.76
2023-05-19T00:04:00.232Z,47.76
2023-05-19T00:04:14.229Z,47.76
2023-05-19T00:04:42.207Z,47.76
2023-05-19T00:04:56.200Z,47.76
2023-05-19T00:05:10.187Z,47.76
2023-05-19T00:05:24.258Z,47.76
2023-05-19T00:05:52.305Z,47.76
2023-05-19T00:06:06.368Z,47.76
2023-05-19T00:06:20.421Z,47.76
2023-05-19T00:06:34.442Z,47.76
2023-05-19T00:07:02.416Z,47.76
2023-05-19T00:07:16.419Z,47.76
2023-05-19T00:07:30.409Z,47.76
2023-05-19T00:07:44.402Z,47.76
2023-05-19T00:08:12.357Z,47.76
2023-05-19T00:08:26.347Z,47.76
2023-05-19T00:08:40.346Z,47.76
2023-05-19T00:08:54.358Z,47.76
2023-05-19T00:09:22.331Z,47.76
2023-05-19T00:09:36.335Z,47.76
2023-05-19T00:09:50.346Z,47.76
2023-05-19T00:10:04.331Z,47.76
2023-05-19T00:10:32.511Z,47.76
2023-05-19T00:10:46.740Z,47.76
2023-05-19T00:11:00.714Z,47.76
2023-05-19T00:11:14.704Z,47.76
2023-05-19T00:11:42.693Z,47.76
2023-05-19T00:11:56.692Z,47.76
2023-05-19T00:12:10.732Z,47.76
2023-05-19T00:12:24.721Z,47.76
2023-05-19T00:12:53.959Z,47.76
2023-05-19T00:13:05.396Z,47.76
2023-05-19T00:13:19.398Z,47.76
2023-05-19T00:13:33.386Z,47.76
2023-05-19T00:14:01.358Z,47.76
2023-05-19T00:14:15.361Z,47.76
2023-05-19T00:14:29.354Z,47.76
2023-05-19T00:14:43.351Z,47.76
2023-05-19T00:15:11.293Z,47.76
2023-05-19T00:15:25.276Z,47.76
2023-05-19T00:15:39.284Z,47.76
2023-05-19T00:15:53.306Z,47.76
2023-05-19T00:16:21.520Z,47.76
2023-05-19T00:16:35.589Z,47.76
2023-05-19T00:16:49.612Z,47.76
2023-05-19T00:17:03.599Z,47.76
2023-05-19T00:17:31.591Z,47.76
2023-05-19T00:17:45.713Z,47.76
2023-05-19T00:17:59.801Z,47.76
2023-05-19T00:18:14.034Z,47.76
2023-05-19T00:18:42.218Z,47.76
2023-05-19T00:18:56.265Z,47.76
2023-05-19T00:19:10.754Z,47.76
2023-05-19T00:19:25.925Z,47.76
2023-05-19T00:19:53.930Z,47.76
2023-05-19T00:20:07.924Z,47.76
2023-05-19T00:20:21.938Z,47.76
2023-05-19T00:20:35.929Z,47.76
2023-05-19T00:21:03.900Z,47.76
2023-05-19T00:21:18.040Z,47.76
2023-05-19T00:21:32.061Z,47.76
2023-05-19T00:21:46.055Z,47.76
2023-05-19T00:22:14.019Z,47.76
2023-05-19T00:22:28.034Z,47.76
2023-05-19T00:22:42.010Z,47.76
2023-05-19T00:22:56.009Z,47.76
2023-05-19T00:23:23.987Z,47.76
2023-05-19T00:23:37.978Z,47.76
2023-05-19T00:23:51.985Z,47.76
2023-05-19T00:24:05.971Z,47.76
2023-05-19T00:24:33.963Z,47.76
2023-05-19T00:24:47.955Z,47.76
2023-05-19T00:25:01.928Z,47.76
2023-05-19T00:25:15.917Z,47.76
2023-05-19T00:25:43.900Z,47.76
2023-05-19T00:25:57.893Z,47.76
2023-05-19T00:26:11.907Z,47.76
2023-05-19T00:26:25.893Z,47.76
2023-05-19T00:26:53.838Z,47.76
2023-05-19T00:27:07.826Z,47.76
2023-05-19T00:27:21.822Z,47.76
2023-05-19T00:27:35.822Z,47.76
2023-05-19T00:28:03.799Z,47.76
2023-05-19T00:28:17.798Z,47.76
2023-05-19T00:28:31.781Z,47.76
2023-05-19T00:28:45.775Z,47.76
2023-05-19T00:29:13.742Z,47.76
2023-05-19T00:29:27.740Z,47.76
2023-05-19T00:29:41.721Z,47.76
2023-05-19T00:29:55.729Z,47.76
2023-05-19T00:30:23.707Z,47.76
2023-05-19T00:30:37.707Z,47.76
2023-05-19T00:30:51.715Z,47.76
2023-05-19T00:31:05.719Z,47.76
2023-05-19T00:31:33.722Z,47.76
2023-05-19T00:31:47.748Z,47.76
2023-05-19T00:32:01.776Z,47.76
2023-05-19T00:32:15.944Z,47.76
2023-05-19T00:32:44.000Z,47.76
2023-05-19T00:32:58.022Z,47.76
2023-05-19T00:33:12.080Z,47.76
2023-05-19T00:33:26.101Z,47.76
2023-05-19T00:33:54.062Z,47.76
2023-05-19T00:34:08.050Z,47.76
2023-05-19T00:34:22.046Z,47.76
2023-05-19T00:34:36.024Z,47.76
2023-05-19T00:35:03.980Z,47.76
2023-05-19T00:35:17.987Z,47.76
2023-05-19T00:35:31.974Z,47.76
2023-05-19T00:35:45.956Z,47.76
2023-05-19T00:36:13.923Z,47.76
2023-05-19T00:36:27.923Z,47.76
2023-05-19T00:36:41.920Z,47.76
2023-05-19T00:36:55.921Z,47.76
2023-05-19T00:37:09.930Z,47.76
2023-05-19T00:37:23.918Z,47.76
2023-05-19T00:37:37.911Z,47.76
2023-05-19T00:37:51.905Z,47.76
2023-05-19T00:38:05.905Z,47.76
2023-05-19T00:38:33.886Z,47.76
2023-05-19T00:38:47.876Z,47.76
2023-05-19T00:39:01.890Z,47.76
2023-05-19T00:39:15.878Z,47.76
2023-05-19T00:39:43.863Z,47.76
2023-05-19T00:39:57.879Z,47.76
2023-05-19T00:40:11.886Z,47.76
2023-05-19T00:40:25.882Z,47.76
2023-05-19T00:40:53.835Z,47.76
2023-05-19T00:41:07.844Z,47.76
2023-05-19T00:41:21.832Z,47.76
2023-05-19T00:41:35.825Z,47.76
2023-05-19T00:42:03.790Z,47.76
2023-05-19T00:42:17.768Z,47.76
2023-05-19T00:42:31.751Z,47.86
2023-05-19T00:42:45.731Z,47.86
2023-05-19T00:43:13.706Z,47.86
2023-05-19T00:43:27.706Z,47.86
2023-05-19T00:43:41.693Z,47.86
2023-05-19T00:43:55.682Z,47.86
2023-05-19T00:44:23.731Z,47.86
2023-05-19T00:44:37.723Z,47.86
2023-05-19T00:44:51.735Z,47.86
2023-05-19T00:45:05.723Z,47.76
2023-05-19T00:45:33.717Z,47.86
2023-05-19T00:45:47.717Z,47.76
2023-05-19T00:46:01.718Z,47.76
2023-05-19T00:46:15.845Z,47.76
2023-05-19T00:46:43.858Z,47.76
2023-05-19T00:46:58.023Z,47.76
2023-05-19T00:47:12.078Z,47.76
2023-05-19T00:47:26.082Z,47.86
2023-05-19T00:47:54.084Z,47.86
2023-05-19T00:48:08.176Z,47.86
2023-05-19T00:48:22.227Z,47.76
2023-05-19T00:48:36.218Z,47.76
2023-05-19T00:49:04.167Z,47.76
2023-05-19T00:49:18.165Z,47.86
2023-05-19T00:49:32.151Z,47.86
2023-05-19T00:49:46.159Z,47.86
2023-05-19T00:50:14.126Z,47.86
2023-05-19T00:50:28.143Z,47.86
2023-05-19T00:50:42.147Z,47.76
2023-05-19T00:50:56.148Z,47.86
2023-05-19T00:51:24.115Z,47.76
2023-05-19T00:51:38.098Z,47.76
2023-05-19T00:51:52.074Z,47.86
2023-05-19T00:52:06.087Z,47.76
2023-05-19T00:52:34.067Z,47.76
2023-05-19T00:52:48.047Z,47.76
2023-05-19T00:53:02.038Z,47.86
2023-05-19T00:53:16.076Z,47.86
2023-05-19T00:53:44.044Z,47.76
2023-05-19T00:53:58.047Z,47.76
2023-05-19T00:54:12.043Z,47.86
2023-05-19T00:54:26.050Z,47.76
2023-05-19T00:54:40.054Z,47.76
2023-05-19T00:54:54.045Z,47.86
2023-05-19T00:55:08.035Z,47.86
2023-05-19T00:55:22.066Z,47.86
2023-05-19T00:55:36.071Z,47.86
2023-05-19T00:56:04.065Z,47.86
2023-05-19T00:56:18.069Z,47.86
2023-05-19T00:56:32.068Z,47.86
2023-05-19T00:56:46.075Z,47.86
2023-05-19T00:57:14.021Z,47.76
2023-05-19T00:57:28.020Z,47.76
2023-05-19T00:57:42.013Z,47.76
2023-05-19T00:57:56.003Z,47.76
2023-05-19T00:58:23.995Z,47.86
2023-05-19T00:58:38.014Z,47.76
2023-05-19T00:58:52.046Z,47.76
2023-05-19T00:59:06.098Z,47.76
2023-05-19T00:59:34.058Z,47.76
2023-05-19T00:59:48.079Z,47.76
2023-05-19T01:00:02.073Z,47.76
2023-05-19T01:00:16.064Z,47.86
2023-05-19T01:00:44.058Z,47.76
2023-05-19T01:00:58.100Z,47.76
2023-05-19T01:01:12.338Z,47.76
2023-05-19T01:01:26.603Z,47.76
2023-05-19T01:01:54.721Z,47.76
2023-05-19T01:02:08.724Z,47.76
2023-05-19T01:02:22.774Z,47.76
2023-05-19T01:02:36.888Z,47.76
2023-05-19T01:03:04.951Z,47.76
2023-05-19T01:03:19.063Z,47.76
2023-05-19T01:03:33.203Z,47.76
2023-05-19T01:03:47.378Z,47.86
2023-05-19T01:04:15.413Z,47.76
2023-05-19T01:04:29.393Z,47.76
2023-05-19T01:04:43.380Z,47.76
2023-05-19T01:04:57.373Z,47.76
2023-05-19T01:05:25.340Z,47.76
2023-05-19T01:05:39.421Z,47.76
2023-05-19T01:05:53.424Z,47.76
2023-05-19T01:06:07.580Z,47.76
2023-05-19T01:06:35.601Z,47.76
2023-05-19T01:06:49.584Z,47.76
2023-05-19T01:07:03.608Z,47.76
2023-05-19T01:07:17.597Z,47.76
2023-05-19T01:07:45.565Z,47.86
2023-05-19T01:07:59.604Z,47.86
2023-05-19T01:08:13.646Z,47.86
2023-05-19T01:08:27.689Z,47.76
2023-05-19T01:08:55.656Z,47.76
2023-05-19T01:09:09.644Z,47.76
2023-05-19T01:09:23.734Z,47.86
2023-05-19T01:09:37.721Z,47.86
2023-05-19T01:10:05.693Z,47.86
2023-05-19T01:10:19.688Z,47.86
2023-05-19T01:10:33.855Z,47.76
2023-05-19T01:10:47.950Z,47.86
2023-05-19T01:11:15.911Z,47.76
2023-05-19T01:11:29.917Z,47.86
2023-05-19T01:11:43.943Z,47.86
2023-05-19T01:11:57.961Z,47.86
2023-05-19T01:12:25.930Z,47.86
2023-05-19T01:12:39.929Z,47.86
2023-05-19T01:12:53.923Z,47.86
2023-05-19T01:13:07.905Z,47.86
2023-05-19T01:13:35.907Z,47.86
2023-05-19T01:13:49.923Z,47.86
2023-05-19T01:14:03.916Z,47.86
2023-05-19T01:14:17.907Z,47.86
2023-05-19T01:14:45.884Z,47.86
2023-05-19T01:14:59.869Z,47.86
2023-05-19T01:15:13.862Z,47.86
2023-05-19T01:15:27.845Z,47.86
2023-05-19T01:15:55.854Z,47.86
2023-05-19T01:16:09.900Z,47.86
2023-05-19T01:16:23.975Z,47.86
2023-05-19T01:16:38.058Z,47.86
2023-05-19T01:17:06.044Z,47.86
2023-05-19T01:17:20.018Z,47.86
2023-05-19T01:17:34.023Z,47.86
2023-05-19T01:17:48.070Z,47.86
2023-05-19T01:18:16.054Z,47.86
2023-05-19T01:18:30.075Z,47.86
2023-05-19T01:18:44.106Z,47.86
2023-05-19T01:18:58.193Z,47.86
2023-05-19T01:19:26.211Z,47.86
2023-05-19T01:19:40.199Z,47.86
2023-05-19T01:19:54.194Z,47.86
2023-05-19T01:20:08.183Z,47.86
2023-05-19T01:20:36.140Z,47.86
2023-05-19T01:20:50.125Z,47.86
2023-05-19T01:21:04.130Z,47.86
2023-05-19T01:21:18.115Z,47.86
2023-05-19T01:21:46.077Z,47.86
2023-05-19T01:22:00.063Z,47.86
2023-05-19T01:22:14.117Z,47.86
2023-05-19T01:22:28.113Z,47.86
2023-05-19T01:22:56.075Z,47.86
2023-05-19T01:23:10.064Z,47.86
2023-05-19T01:23:24.109Z,47.86
2023-05-19T01:23:38.119Z,47.86
2023-05-19T01:24:06.086Z,47.86
2023-05-19T01:24:20.087Z,47.86
2023-05-19T01:24:34.082Z,47.86
2023-05-19T01:24:48.075Z,47.86
2023-05-19T01:25:16.177Z,47.86
2023-05-19T01:25:30.165Z,47.86
2023-05-19T01:25:44.174Z,47.86
2023-05-19T01:25:58.198Z,47.86
2023-05-19T01:26:26.161Z,47.86
2023-05-19T01:26:40.146Z,47.86
2023-05-19T01:26:54.136Z,47.86
2023-05-19T01:27:08.124Z,47.86
2023-05-19T01:27:36.092Z,47.88
2023-05-19T01:27:50.081Z,47.86
2023-05-19T01:28:04.084Z,47.86
2023-05-19T01:28:18.119Z,47.86
2023-05-19T01:28:46.106Z,47.86
2023-05-19T01:29:00.174Z,47.86
2023-05-19T01:29:14.168Z,47.86
2023-05-19T01:29:28.182Z,47.88
2023-05-19T01:29:42.162Z,47.86
2023-05-19T01:29:56.158Z,47.86
2023-05-19T01:30:10.164Z,47.86
2023-05-19T01:30:24.158Z,47.88
2023-05-19T01:30:38.137Z,47.86
2023-05-19T01:31:06.148Z,47.86
2023-05-19T01:31:20.209Z,47.86
2023-05-19T01:31:34.266Z,47.86
2023-05-19T01:31:48.302Z,47.86
2023-05-19T01:32:16.386Z,47.86
2023-05-19T01:32:30.455Z,47.86
2023-05-19T01:32:44.484Z,47.88
2023-05-19T01:32:58.541Z,47.88
2023-05-19T01:33:26.517Z,47.86
2023-05-19T01:33:40.489Z,47.88
2023-05-19T01:33:54.486Z,47.86
2023-05-19T01:34:08.467Z,47.88
2023-05-19T01:34:36.420Z,47.88
2023-05-19T01:34:50.406Z,47.99
2023-05-19T01:35:04.385Z,47.88
2023-05-19T01:35:18.401Z,47.88
2023-05-19T01:35:46.351Z,47.88
2023-05-19T01:36:00.363Z,47.88
2023-05-19T01:36:14.353Z,47.86
2023-05-19T01:36:28.338Z,47.88
2023-05-19T01:36:56.296Z,47.86
2023-05-19T01:37:10.300Z,47.86
2023-05-19T01:37:24.280Z,47.88
2023-05-19T01:37:38.283Z,47.88
2023-05-19T01:38:06.269Z,47.86
2023-05-19T01:38:20.249Z,47.88
2023-05-19T01:38:34.253Z,47.88
2023-05-19T01:38:48.239Z,47.86
2023-05-19T01:39:16.187Z,47.86
2023-05-19T01:39:30.180Z,47.88
2023-05-19T01:39:44.221Z,47.88
2023-05-19T01:39:58.206Z,47.88
2023-05-19T01:40:26.209Z,47.88
2023-05-19T01:40:40.203Z,47.88
2023-05-19T01:40:54.208Z,47.88
2023-05-19T01:41:08.185Z,47.88
2023-05-19T01:41:36.137Z,47.88
2023-05-19T01:41:50.143Z,47.88
2023-05-19T01:42:04.137Z,47.99
2023-05-19T01:42:18.132Z,47.88
2023-05-19T01:42:46.077Z,47.88
2023-05-19T01:43:00.110Z,47.99
2023-05-19T01:43:14.172Z,47.88
2023-05-19T01:43:28.158Z,47.88
2023-05-19T01:43:56.114Z,47.88
2023-05-19T01:44:10.105Z,47.88
2023-05-19T01:44:24.099Z,47.99
2023-05-19T01:44:38.092Z,47.99
2023-05-19T01:45:06.043Z,47.99
2023-05-19T01:45:20.066Z,47.88
2023-05-19T01:45:34.164Z,47.88
2023-05-19T01:45:48.250Z,47.88
2023-05-19T01:46:16.253Z,47.88
2023-05-19T01:46:30.367Z,47.99
2023-05-19T01:46:44.399Z,47.99
2023-05-19T01:46:58.386Z,47.99
2023-05-19T01:47:12.382Z,47.99
2023-05-19T01:47:26.425Z,47.88
2023-05-19T01:47:40.523Z,47.99
2023-05-19T01:47:54.595Z,47.99
2023-05-19T01:48:10.800Z,47.88
2023-05-19T01:48:36.551Z,47.99
2023-05-19T01:48:50.540Z,47.99
2023-05-19T01:49:04.544Z,47.88
2023-05-19T01:49:18.538Z,47.99
2023-05-19T01:49:46.499Z,47.99
2023-05-19T01:50:00.486Z,47.99
2023-05-19T01:50:14.575Z,47.99
2023-05-19T01:50:28.566Z,47.99
2023-05-19T01:50:56.544Z,47.99
2023-05-19T01:51:10.533Z,47.99
2023-05-19T01:51:24.526Z,47.99
2023-05-19T01:51:38.520Z,47.99
2023-05-19T01:52:06.501Z,47.88
2023-05-19T01:52:20.491Z,47.88
2023-05-19T01:52:34.522Z,47.88
2023-05-19T01:52:48.550Z,47.88
2023-05-19T01:53:16.516Z,47.99
2023-05-19T01:53:30.548Z,47.99
2023-05-19T01:53:44.553Z,47.88
2023-05-19T01:53:58.551Z,47.99
2023-05-19T01:54:26.540Z,47.99
2023-05-19T01:54:40.513Z,47.99
2023-05-19T01:54:54.494Z,47.99
2023-05-19T01:55:08.478Z,47.99
2023-05-19T01:55:36.466Z,47.99
2023-05-19T01:55:50.487Z,47.99
2023-05-19T01:56:04.502Z,47.99
2023-05-19T01:56:18.483Z,47.99
2023-05-19T01:56:46.449Z,47.99
2023-05-19T01:57:00.447Z,47.99
2023-05-19T01:57:14.443Z,47.99
2023-05-19T01:57:28.431Z,47.99
2023-05-19T01:57:56.423Z,47.99
2023-05-19T01:58:10.421Z,47.99
2023-05-19T01:58:24.414Z,47.99
2023-05-19T01:58:38.418Z,47.99
2023-05-19T01:59:06.394Z,47.99
2023-05-19T01:59:20.378Z,47.99
2023-05-19T01:59:34.375Z,47.99
2023-05-19T01:59:48.355Z,47.99
2023-05-19T02:00:16.318Z,47.99
2023-05-19T02:00:30.528Z,47.99
2023-05-19T02:00:44.689Z,47.99
2023-05-19T02:00:58.696Z,47.99
2023-05-19T02:01:26.716Z,47.99
2023-05-19T02:01:40.843Z,47.99
2023-05-19T02:01:54.876Z,47.99
2023-05-19T02:02:08.864Z,47.99
2023-05-19T02:02:36.848Z,47.99
2023-05-19T02:02:50.869Z,47.99
2023-05-19T02:03:04.968Z,48.08
2023-05-19T02:03:18.969Z,47.99
2023-05-19T02:03:46.970Z,47.99
2023-05-19T02:04:01.072Z,47.99
2023-05-19T02:04:15.109Z,48.08
2023-05-19T02:04:29.185Z,47.99
2023-05-19T02:04:43.316Z,48.08
2023-05-19T02:04:57.385Z,48.08
2023-05-19T02:05:11.383Z,48.08
2023-05-19T02:05:25.373Z,48.08
2023-05-19T02:05:39.359Z,48.08
2023-05-19T02:06:07.322Z,48.08
2023-05-19T02:06:21.356Z,48.08
2023-05-19T02:06:35.340Z,48.08
2023-05-19T02:06:49.332Z,48.08
2023-05-19T02:07:17.282Z,48.08
2023-05-19T02:07:31.270Z,48.08
2023-05-19T02:07:45.272Z,48.08
2023-05-19T02:07:59.249Z,48.08
2023-05-19T02:08:27.200Z,48.08
2023-05-19T02:08:41.209Z,48.08
2023-05-19T02:08:55.188Z,48.08
2023-05-19T02:09:09.208Z,48.08
2023-05-19T02:09:37.165Z,48.08
2023-05-19T02:09:51.152Z,48.08
2023-05-19T02:10:05.164Z,48.08
2023-05-19T02:10:19.173Z,47.99
2023-05-19T02:10:47.190Z,48.08
2023-05-19T02:11:01.174Z,48.08
2023-05-19T02:11:15.157Z,48.08
2023-05-19T02:11:29.186Z,48.08
2023-05-19T02:11:57.172Z,48.08
2023-05-19T02:12:11.160Z,48.08
2023-05-19T02:12:25.150Z,48.08
2023-05-19T02:12:39.150Z,48.08
2023-05-19T02:13:07.128Z,48.08
2023-05-19T02:13:21.128Z,48.08
2023-05-19T02:13:35.123Z,48.08
2023-05-19T02:13:49.104Z,48.08
2023-05-19T02:14:17.102Z,48.08
2023-05-19T02:14:31.090Z,48.08
2023-05-19T02:14:45.074Z,48.08
2023-05-19T02:14:59.068Z,48.08
2023-05-19T02:15:27.049Z,48.08
2023-05-19T02:15:41.070Z,48.08
2023-05-19T02:15:55.117Z,48.08
2023-05-19T02:16:09.175Z,48.08
2023-05-19T02:16:37.200Z,48.08
2023-05-19T02:16:51.201Z,48.08
2023-05-19T02:17:05.188Z,48.08
2023-05-19T02:17:19.178Z,48.08
2023-05-19T02:17:47.199Z,48.08
2023-05-19T02:18:01.358Z,48.08
2023-05-19T02:18:15.356Z,48.08
2023-05-19T02:18:29.342Z,48.08
2023-05-19T02:18:57.379Z,48.08
2023-05-19T02:19:11.541Z,48.08
2023-05-19T02:19:25.783Z,48.08
2023-05-19T02:19:39.865Z,48.08
2023-05-19T02:20:07.822Z,48.08
2023-05-19T02:20:21.811Z,48.08
2023-05-19T02:20:35.806Z,48.08
2023-05-19T02:20:49.798Z,48.08
2023-05-19T02:21:17.769Z,48.08
2023-05-19T02:21:31.755Z,48.08
2023-05-19T02:21:45.743Z,48.08
2023-05-19T02:21:59.739Z,48.08
2023-05-19T02:22:27.693Z,48.08
2023-05-19T02:22:41.684Z,48.08
2023-05-19T02:22:55.671Z,48.08
2023-05-19T02:23:09.663Z,48.08
2023-05-19T02:23:37.626Z,48.08
2023-05-19T02:23:51.621Z,48.08
2023-05-19T02:24:05.607Z,48.08
2023-05-19T02:24:19.611Z,48.08
2023-05-19T02:24:47.627Z,48.08
2023-05-19T02:25:01.633Z,48.08
2023-05-19T02:25:15.631Z,48.08
2023-05-19T02:25:29.628Z,48.08
2023-05-19T02:25:57.616Z,48.08
2023-05-19T02:26:11.616Z,48.08
2023-05-19T02:26:25.597Z,48.08
2023-05-19T02:26:39.595Z,48.08
2023-05-19T02:27:07.566Z,48.19
2023-05-19T02:27:21.541Z,48.08
2023-05-19T02:27:35.518Z,48.08
2023-05-19T02:27:49.522Z,48.08
2023-05-19T02:28:17.493Z,48.08
2023-05-19T02:28:31.486Z,48.08
2023-05-19T02:28:45.474Z,48.08
2023-05-19T02:28:59.473Z,48.08
2023-05-19T02:29:27.482Z,48.08
2023-05-19T02:29:41.482Z,48.08
2023-05-19T02:29:55.468Z,48.08
2023-05-19T02:30:09.469Z,48.08
2023-05-19T02:30:37.439Z,48.08
2023-05-19T02:30:51.458Z,48.08
2023-05-19T02:31:05.449Z,48.19
2023-05-19T02:31:19.459Z,48.08
2023-05-19T02:31:47.494Z,48.08
2023-05-19T02:32:01.633Z,48.08
2023-05-19T02:32:15.777Z,48.08
2023-05-19T02:32:29.856Z,48.08
2023-05-19T02:32:57.914Z,48.08
2023-05-19T02:33:11.930Z,48.08
2023-05-19T02:33:25.967Z,48.08
2023-05-19T02:33:40.054Z,48.08
2023-05-19T02:34:08.003Z,48.19
2023-05-19T02:34:21.999Z,48.08
2023-05-19T02:34:36.023Z,48.19
2023-05-19T02:34:50.023Z,48.08
2023-05-19T02:35:17.975Z,48.08
2023-05-19T02:35:31.998Z,48.19
2023-05-19T02:35:45.985Z,48.08
2023-05-19T02:35:59.970Z,48.08
2023-05-19T02:36:27.924Z,48.08
2023-05-19T02:36:41.909Z,48.08
2023-05-19T02:36:55.886Z,48.08
2023-05-19T02:37:09.876Z,48.08
2023-05-19T02:37:37.855Z,48.08
2023-05-19T02:37:51.859Z,48.08
2023-05-19T02:38:05.856Z,48.08
2023-05-19T02:38:19.846Z,48.08
2023-05-19T02:38:47.797Z,48.08
2023-05-19T02:39:01.796Z,48.08
2023-05-19T02:39:15.807Z,48.08
2023-05-19T02:39:29.796Z,48.08
2023-05-19T02:39:43.774Z,48.08
2023-05-19T02:39:57.786Z,48.08
2023-05-19T02:40:11.779Z,48.08
2023-05-19T02:40:25.783Z,48.08
2023-05-19T02:40:39.778Z,48.08
2023-05-19T02:41:07.761Z,48.08
2023-05-19T02:41:21.747Z,48.08
2023-05-19T02:41:35.723Z,48.08
2023-05-19T02:41:49.733Z,48.08
2023-05-19T02:42:17.714Z,48.19
2023-05-19T02:42:31.702Z,48.19
2023-05-19T02:42:45.695Z,48.19
2023-05-19T02:42:59.679Z,48.19
2023-05-19T02:43:27.623Z,48.19
2023-05-19T02:43:41.598Z,48.19
2023-05-19T02:43:55.608Z,48.19
2023-05-19T02:44:09.586Z,48.19
2023-05-19T02:44:37.545Z,48.08
2023-05-19T02:44:51.538Z,48.19
2023-05-19T02:45:05.600Z,48.08
2023-05-19T02:45:19.599Z,48.19
2023-05-19T02:45:47.554Z,48.08
2023-05-19T02:46:01.582Z,48.08
2023-05-19T02:46:15.657Z,48.08
2023-05-19T02:46:29.683Z,48.08
2023-05-19T02:46:57.659Z,48.08
2023-05-19T02:47:11.657Z,48.08
2023-05-19T02:47:25.682Z,48.08
2023-05-19T02:47:39.715Z,48.19
2023-05-19T02:48:07.764Z,48.19
2023-05-19T02:48:21.789Z,48.19
2023-05-19T02:48:35.799Z,48.19
2023-05-19T02:48:49.811Z,48.08
2023-05-19T02:49:17.769Z,48.08
2023-05-19T02:49:31.759Z,48.08
2023-05-19T02:49:45.750Z,48.19
2023-05-19T02:49:59.782Z,48.08
2023-05-19T02:50:27.810Z,48.08
2023-05-19T02:50:41.783Z,48.08
2023-05-19T02:50:55.777Z,48.08
2023-05-19T02:51:09.770Z,48.08
2023-05-19T02:51:37.759Z,48.19
2023-05-19T02:51:51.763Z,48.19
2023-05-19T02:52:05.753Z,48.19
2023-05-19T02:52:19.750Z,48.19
2023-05-19T02:52:47.685Z,48.08
2023-05-19T02:53:01.671Z,48.19
2023-05-19T02:53:15.681Z,48.19
2023-05-19T02:53:29.684Z,48.19
2023-05-19T02:53:57.637Z,48.19
2023-05-19T02:54:11.633Z,48.19
2023-05-19T02:54:25.635Z,48.19
2023-05-19T02:54:39.639Z,48.08
2023-05-19T02:55:07.619Z,48.08
2023-05-19T02:55:21.751Z,48.08
2023-05-19T02:55:35.745Z,48.08
2023-05-19T02:55:49.744Z,48.08
2023-05-19T02:56:17.735Z,48.08
2023-05-19T02:56:31.736Z,48.08
2023-05-19T02:56:45.719Z,48.08
2023-05-19T02:56:59.713Z,48.08
2023-05-19T02:57:13.684Z,48.08
2023-05-19T02:57:27.675Z,48.08
2023-05-19T02:57:41.676Z,48.08
2023-05-19T02:57:55.668Z,48.08
2023-05-19T02:58:09.647Z,48.08
2023-05-19T02:58:37.626Z,48.08
2023-05-19T02:58:51.643Z,48.08
2023-05-19T02:59:05.636Z,48.08
2023-05-19T02:59:19.634Z,48.08
2023-05-19T02:59:47.595Z,48.08
2023-05-19T03:00:01.617Z,48.08
2023-05-19T03:00:15.623Z,48.19
2023-05-19T03:00:29.690Z,48.08
2023-05-19T03:00:57.773Z,48.08
2023-05-19T03:01:11.761Z,48.19
2023-05-19T03:01:25.759Z,48.19
2023-05-19T03:01:39.804Z,48.08
2023-05-19T03:02:07.860Z,48.08
2023-05-19T03:02:21.902Z,48.08
2023-05-19T03:02:35.970Z,48.08
2023-05-19T03:02:50.130Z,48.19
2023-05-19T03:03:18.306Z,48.19
2023-05-19T03:03:32.408Z,48.19
2023-05-19T03:03:46.627Z,48.19
2023-05-19T03:04:00.800Z,48.19
2023-05-19T03:04:28.833Z,48.08
2023-05-19T03:04:42.856Z,48.08
2023-05-19T03:04:56.854Z,48.19
2023-05-19T03:05:10.876Z,48.19
2023-05-19T03:05:38.862Z,48.19
2023-05-19T03:05:52.870Z,48.19
2023-05-19T03:06:06.867Z,48.19
2023-05-19T03:06:20.854Z,48.19
2023-05-19T03:06:48.831Z,48.21
2023-05-19T03:07:02.814Z,48.19
2023-05-19T03:07:16.826Z,48.21
2023-05-19T03:07:30.804Z,48.19
2023-05-19T03:07:58.796Z,48.19
2023-05-19T03:08:12.794Z,48.21
2023-05-19T03:08:26.778Z,48.21
2023-05-19T03:08:42.428Z,48.19
2023-05-19T03:09:07.945Z,48.21
2023-05-19T03:09:21.956Z,48.21
2023-05-19T03:09:35.959Z,48.19
2023-05-19T03:09:49.977Z,48.21
2023-05-19T03:10:17.942Z,48.21
2023-05-19T03:10:32.076Z,48.21
2023-05-19T03:10:46.185Z,48.21
2023-05-19T03:11:00.215Z,48.21
2023-05-19T03:11:28.189Z,48.21
2023-05-19T03:11:42.184Z,48.21
2023-05-19T03:11:56.176Z,48.21
2023-05-19T03:12:10.172Z,48.21
2023-05-19T03:12:38.150Z,48.21
2023-05-19T03:12:52.165Z,48.21
2023-05-19T03:13:06.156Z,48.21
2023-05-19T03:13:20.152Z,48.21
2023-05-19T03:13:48.150Z,48.21
2023-05-19T03:14:02.140Z,48.21
2023-05-19T03:14:16.125Z,48.19
2023-05-19T03:14:30.134Z,48.21
2023-05-19T03:14:58.131Z,48.21
2023-05-19T03:15:12.112Z,48.21
2023-05-19T03:15:26.102Z,48.21
2023-05-19T03:15:40.163Z,48.21
2023-05-19T03:16:08.361Z,48.21
2023-05-19T03:16:22.588Z,48.21
2023-05-19T03:16:36.717Z,48.21
2023-05-19T03:16:50.925Z,48.21
2023-05-19T03:17:19.076Z,48.21
2023-05-19T03:17:33.238Z,48.21
2023-05-19T03:17:47.424Z,48.21
2023-05-19T03:18:01.572Z,48.21
2023-05-19T03:18:29.569Z,48.21
2023-05-19T03:18:43.673Z,48.21
2023-05-19T03:18:57.717Z,48.21
2023-05-19T03:19:11.742Z,48.21
2023-05-19T03:19:39.745Z,48.21
2023-05-19T03:19:53.754Z,48.21
2023-05-19T03:20:07.782Z,48.21
2023-05-19T03:20:21.766Z,48.21
2023-05-19T03:20:49.734Z,48.21
2023-05-19T03:21:03.837Z,48.21
2023-05-19T03:21:17.839Z,48.21
2023-05-19T03:21:31.849Z,48.21
2023-05-19T03:21:59.831Z,48.21
2023-05-19T03:22:13.810Z,48.21
2023-05-19T03:22:27.801Z,48.21
2023-05-19T03:22:41.779Z,48.21
2023-05-19T03:22:55.765Z,48.21
2023-05-19T03:23:09.760Z,48.21
2023-05-19T03:23:23.753Z,48.21
2023-05-19T03:23:37.728Z,48.21
2023-05-19T03:23:51.712Z,48.21
2023-05-19T03:24:19.657Z,48.21
2023-05-19T03:24:33.643Z,48.21
2023-05-19T03:24:47.633Z,48.21
2023-05-19T03:25:01.620Z,48.21
2023-05-19T03:25:29.606Z,48.21
2023-05-19T03:25:43.609Z,48.21
2023-05-19T03:25:57.591Z,48.21
2023-05-19T03:26:11.580Z,48.21
2023-05-19T03:26:39.560Z,48.21
2023-05-19T03:26:53.542Z,48.21
2023-05-19T03:27:07.540Z,48.21
2023-05-19T03:27:21.535Z,48.21
2023-05-19T03:27:49.500Z,48.21
2023-05-19T03:28:03.479Z,48.21
2023-05-19T03:28:17.458Z,48.21
2023-05-19T03:28:31.521Z,48.21
2023-05-19T03:28:59.519Z,48.21
2023-05-19T03:29:13.515Z,48.21
2023-05-19T03:29:27.519Z,48.21
2023-05-19T03:29:41.531Z,48.21
2023-05-19T03:30:09.511Z,48.21
2023-05-19T03:30:23.493Z,48.21
2023-05-19T03:30:37.481Z,48.21
2023-05-19T03:30:51.466Z,48.21
2023-05-19T03:31:19.445Z,48.21
2023-05-19T03:31:33.442Z,48.21
2023-05-19T03:31:47.429Z,48.21
2023-05-19T03:32:01.457Z,48.21
2023-05-19T03:32:29.551Z,48.21
2023-05-19T03:32:43.753Z,48.21
2023-05-19T03:32:57.863Z,48.21
2023-05-19T03:33:12.007Z,48.21
2023-05-19T03:33:40.069Z,48.21
2023-05-19T03:33:54.071Z,48.21
2023-05-19T03:34:08.103Z,48.21
2023-05-19T03:34:22.122Z,48.21
2023-05-19T03:34:50.105Z,48.21
2023-05-19T03:35:04.094Z,48.21
2023-05-19T03:35:18.082Z,48.21
2023-05-19T03:35:32.072Z,48.21
2023-05-19T03:36:00.049Z,48.21
2023-05-19T03:36:14.037Z,48.21
2023-05-19T03:36:28.012Z,48.21
2023-05-19T03:36:41.991Z,48.21
2023-05-19T03:37:09.934Z,48.21
2023-05-19T03:37:23.916Z,48.21
2023-05-19T03:37:37.900Z,48.21
2023-05-19T03:37:51.872Z,48.11
2023-05-19T03:38:19.853Z,48.21
2023-05-19T03:38:33.847Z,48.11
2023-05-19T03:38:47.830Z,48.11
2023-05-19T03:39:01.815Z,48.11
2023-05-19T03:39:29.771Z,48.11
2023-05-19T03:39:43.753Z,48.21
2023-05-19T03:39:57.740Z,48.21
2023-05-19T03:40:11.725Z,48.21
2023-05-19T03:40:25.717Z,48.21
2023-05-19T03:40:39.757Z,48.21
2023-05-19T03:40:53.752Z,48.21
2023-05-19T03:41:07.746Z,48.21
2023-05-19T03:41:21.725Z,48.21
2023-05-19T03:41:49.705Z,48.21
2023-05-19T03:42:03.704Z,48.21
2023-05-19T03:42:17.698Z,48.11